首页
METAR-TAF:

METAR-TAF

机场 :

巴黎-勒布尔热机场

巴黎, 法国

纬度: 48-58N, 经度: 002-27E, 海拔: 66米

当前天气观测

该预报发布于35分钟前的08:30 UTC
风速9节,风向北转东北,在东北之间变化
温度 24°C
湿度 69%
气压 1023 hPa
能见度10公里或以上
1500米以下无云,无积雨云

METAR: LFPB 270830Z AUTO 02009KT 350V050 CAVOK 24/18 Q1023 NOSIG

时间: 11:05 (09:05 UTC)

预报

该预报发布于4小时和5分钟前的05:00 UTC
预报有效从27日的 06点(UTC)到 28日的 06点(UTC)
风速10节,风向北转东北
能见度10公里或以上
1500米以下无云,无积雨云
几率 40% :
短暂存在
从 27日的 16点(UTC)到 27日的 22点(UTC)
风速15节,风向东北,有时为25节阵风

TAF: LFPB 270500Z 2706/2806 03010KT CAVOK PROB40 TEMPO 2716/2722 04015G25KT

超过4000个机场的气象观测和天气预报(METAR&TAF报告)。

可查询的气象台以黄色和红色小点在地图上表示。

将鼠标移到小点上方,可查看气象台名称。

然后点击查看天气观测和预报。

如需切换地图:点击带黑十字的绿色按钮放大地图;点击带横线的绿色按钮缩小地图;或者点击绿色箭头查看邻近地区的地图。


METAR-TAF: